createdAt,value
2023-02-03T00:01:42.866Z,100195.09
2023-02-03T00:04:09.590Z,100204.41
2023-02-03T00:06:36.440Z,100211.09
2023-02-03T00:09:03.241Z,100205.88
2023-02-03T00:11:30.988Z,100217.03
2023-02-03T00:13:57.758Z,100218.81
2023-02-03T00:16:24.558Z,100217.72
2023-02-03T00:18:51.393Z,100220.75
2023-02-03T00:21:18.178Z,100223.59
2023-02-03T00:23:45.142Z,100234.72
2023-02-03T00:26:14.885Z,100228.47
2023-02-03T00:28:41.692Z,100232.59
2023-02-03T00:31:19.349Z,100234.34
2023-02-03T00:33:46.437Z,100235.59
2023-02-03T00:36:13.848Z,100242.84
2023-02-03T00:38:40.723Z,100251.63
2023-02-03T00:41:07.607Z,100248.75
2023-02-03T00:43:34.466Z,100253.94
2023-02-03T00:46:01.358Z,100243.22
2023-02-03T00:48:28.513Z,100251.47
2023-02-03T00:50:55.243Z,100259.25
2023-02-03T00:53:21.997Z,100265.63
2023-02-03T00:55:48.724Z,100262.75
2023-02-03T00:58:15.519Z,100271.03
2023-02-03T01:00:42.172Z,100274.41
2023-02-03T01:03:10.260Z,100276.75
2023-02-03T01:05:37.315Z,100281.69
2023-02-03T01:08:04.224Z,100280.91
2023-02-03T01:10:31.015Z,100287.63
2023-02-03T01:12:57.717Z,100290.50
2023-02-03T01:15:24.504Z,100292.50
2023-02-03T01:17:51.203Z,100292.75
2023-02-03T01:20:18.125Z,100288.25
2023-02-03T01:22:44.887Z,100293.16
2023-02-03T01:25:11.661Z,100296.78
2023-02-03T01:27:38.469Z,100300.31
2023-02-03T01:30:05.562Z,100301.38
2023-02-03T01:32:32.325Z,100301.38
2023-02-03T01:34:58.979Z,100304.19
2023-02-03T01:37:25.781Z,100303.94
2023-02-03T01:39:52.477Z,100303.41
2023-02-03T01:42:19.209Z,100304.97
2023-02-03T01:44:48.288Z,100302.38
2023-02-03T01:47:23.998Z,100302.38
2023-02-03T01:50:32.674Z,100305.75
2023-02-03T01:53:05.013Z,100308.56
2023-02-03T01:55:35.124Z,100311.38
2023-02-03T01:58:13.692Z,100316.81
2023-02-03T02:00:40.550Z,100317.81
2023-02-03T02:03:08.466Z,100309.53
2023-02-03T02:05:42.671Z,100318.00
2023-02-03T02:08:09.956Z,100316.91
2023-02-03T02:10:36.707Z,100310.81
2023-02-03T02:13:04.116Z,100321.41
2023-02-03T02:16:09.772Z,100314.44
2023-02-03T02:18:39.257Z,100314.44
2023-02-03T02:21:27.067Z,100314.97
2023-02-03T02:24:05.645Z,100318.81
2023-02-03T02:27:10.564Z,100304.56
2023-02-03T02:29:43.472Z,100314.91
2023-02-03T02:32:22.046Z,100311.84
2023-02-03T02:35:14.944Z,100306.13
2023-02-03T02:38:13.843Z,100310.28
2023-02-03T02:41:21.878Z,100312.38
2023-02-03T02:44:02.097Z,100309.78
2023-02-03T02:46:43.856Z,100304.09
2023-02-03T02:49:19.970Z,100309.78
2023-02-03T02:51:48.656Z,100316.47
2023-02-03T02:54:21.348Z,100318.81
2023-02-03T02:56:51.632Z,100323.72
2023-02-03T02:59:18.399Z,100327.88
2023-02-03T03:01:45.140Z,100328.78
2023-02-03T03:04:13.393Z,100317.41
2023-02-03T03:06:53.719Z,100319.81
2023-02-03T03:09:27.592Z,100320.09
2023-02-03T03:11:58.877Z,100319.00
2023-02-03T03:14:28.352Z,100315.06
2023-02-03T03:16:59.947Z,100310.66
2023-02-03T03:19:31.991Z,100312.72
2023-02-03T03:22:02.316Z,100309.34
2023-02-03T03:24:34.520Z,100311.69
2023-02-03T03:27:18.435Z,100308.66
2023-02-03T03:29:53.053Z,100312.25
2023-02-03T03:32:20.021Z,100298.84
2023-02-03T03:34:47.343Z,100305.03
2023-02-03T03:37:36.830Z,100304.00
2023-02-03T03:40:17.290Z,100292.69
2023-02-03T03:43:11.548Z,100286.00
2023-02-03T03:45:43.233Z,100277.66
2023-02-03T03:48:14.518Z,100280.25
2023-02-03T03:50:46.034Z,100270.47
2023-02-03T03:53:13.929Z,100265.84
2023-02-03T03:55:41.209Z,100265.44
2023-02-03T03:58:23.326Z,100264.91
2023-02-03T04:00:50.323Z,100262.34
2023-02-03T04:03:20.935Z,100265.50
2023-02-03T04:05:47.638Z,100272.69
2023-02-03T04:08:14.384Z,100262.34
2023-02-03T04:10:42.547Z,100268.81
2023-02-03T04:13:10.888Z,100264.41
2023-02-03T04:15:37.826Z,100273.47
2023-02-03T04:18:05.240Z,100276.03
2023-02-03T04:20:32.673Z,100280.41
2023-02-03T04:22:59.822Z,100277.25
2023-02-03T04:25:26.662Z,100277.25
2023-02-03T04:27:53.411Z,100276.03
2023-02-03T04:30:20.177Z,100280.94
2023-02-03T04:32:47.455Z,100277.41
2023-02-03T04:35:14.544Z,100276.22
2023-02-03T04:37:41.663Z,100275.81
2023-02-03T04:40:09.348Z,100294.09
2023-02-03T04:42:39.861Z,100283.63
2023-02-03T04:45:08.816Z,100277.22
2023-02-03T04:47:35.633Z,100271.06
2023-02-03T04:50:02.663Z,100275.63
2023-02-03T04:52:30.357Z,100260.53
2023-02-03T04:54:57.172Z,100253.09
2023-02-03T04:57:23.937Z,100248.72
2023-02-03T04:59:50.722Z,100256.31
2023-02-03T05:02:17.514Z,100256.09
2023-02-03T05:04:44.266Z,100257.41
2023-02-03T05:07:11.363Z,100261.31
2023-02-03T05:09:38.063Z,100263.53
2023-02-03T05:12:05.000Z,100259.91
2023-02-03T05:14:31.753Z,100255.25
2023-02-03T05:16:58.449Z,100251.66
2023-02-03T05:19:25.232Z,100262.53
2023-02-03T05:21:51.976Z,100261.19
2023-02-03T05:24:18.725Z,100274.69
2023-02-03T05:26:45.489Z,100271.84
2023-02-03T05:29:12.274Z,100278.41
2023-02-03T05:31:39.103Z,100271.84
2023-02-03T05:34:05.868Z,100267.13
2023-02-03T05:36:32.619Z,100268.94
2023-02-03T05:38:59.402Z,100262.97
2023-02-03T05:41:44.571Z,100270.19
2023-02-03T05:44:11.368Z,100275.38
2023-02-03T05:46:38.041Z,100274.28
2023-02-03T05:49:04.757Z,100281.78
2023-02-03T05:51:31.559Z,100281.81
2023-02-03T05:53:58.296Z,100283.41
2023-02-03T05:56:25.313Z,100295.78
2023-02-03T05:58:53.360Z,100289.38
2023-02-03T06:01:20.378Z,100289.16
2023-02-03T06:03:48.032Z,100281.91
2023-02-03T06:06:15.426Z,100284.53
2023-02-03T06:08:42.791Z,100284.53
2023-02-03T06:11:10.390Z,100287.47
2023-02-03T06:13:37.113Z,100278.19
2023-02-03T06:16:04.096Z,100278.41
2023-02-03T06:18:30.994Z,100291.38
2023-02-03T06:20:57.723Z,100290.41
2023-02-03T06:23:24.449Z,100299.44
2023-02-03T06:25:52.235Z,100301.28
2023-02-03T06:28:19.314Z,100302.63
2023-02-03T06:30:46.114Z,100289.63
2023-02-03T06:33:12.909Z,100288.38
2023-02-03T06:35:39.626Z,100285.81
2023-02-03T06:38:06.594Z,100288.25
2023-02-03T06:40:33.297Z,100292.22
2023-02-03T06:42:59.996Z,100292.13
2023-02-03T06:45:26.899Z,100291.72
2023-02-03T06:47:53.672Z,100290.78
2023-02-03T06:50:20.329Z,100273.72
2023-02-03T06:52:49.500Z,100283.06
2023-02-03T06:55:16.277Z,100285.66
2023-02-03T06:57:44.870Z,100277.31
2023-02-03T07:00:15.058Z,100282.50
2023-02-03T07:02:43.151Z,100288.72
2023-02-03T07:05:11.965Z,100295.16
2023-02-03T07:07:39.546Z,100304.22
2023-02-03T07:10:06.977Z,100299.25
2023-02-03T07:12:33.844Z,100299.50
2023-02-03T07:15:00.641Z,100301.50
2023-02-03T07:17:27.461Z,100304.16
2023-02-03T07:19:54.216Z,100293.25
2023-02-03T07:22:20.891Z,100304.97
2023-02-03T07:24:47.585Z,100305.75
2023-02-03T07:27:14.264Z,100302.94
2023-02-03T07:29:40.991Z,100301.13
2023-02-03T07:32:07.841Z,100308.69
2023-02-03T07:34:36.010Z,100315.16
2023-02-03T07:37:02.816Z,100302.66
2023-02-03T07:39:30.004Z,100302.16
2023-02-03T07:41:56.785Z,100307.88
2023-02-03T07:44:23.449Z,100305.00
2023-02-03T07:46:50.154Z,100295.44
2023-02-03T07:49:17.030Z,100293.59
2023-02-03T07:51:43.799Z,100290.72
2023-02-03T07:54:10.580Z,100298.53
2023-02-03T07:56:37.990Z,100298.53
2023-02-03T07:59:08.320Z,100306.31
2023-02-03T08:01:35.079Z,100288.19
2023-02-03T08:04:02.137Z,100280.63
2023-02-03T08:06:30.590Z,100280.09
2023-02-03T08:09:02.809Z,100275.16
2023-02-03T08:11:32.663Z,100281.34
2023-02-03T08:14:02.003Z,100280.28
2023-02-03T08:16:28.847Z,100282.59
2023-02-03T08:18:55.551Z,100281.06
2023-02-03T08:21:22.256Z,100283.94
2023-02-03T08:23:50.541Z,100277.94
2023-02-03T08:26:21.592Z,100275.59
2023-02-03T08:28:52.354Z,100288.06
2023-02-03T08:31:25.338Z,100290.94
2023-02-03T08:36:41.140Z,100295.28
2023-02-03T08:39:17.489Z,100287.72
2023-02-03T08:41:46.900Z,100291.13
2023-02-03T08:44:24.071Z,100297.38
2023-02-03T08:46:57.394Z,100303.41
2023-02-03T08:49:31.390Z,100309.38
2023-02-03T08:52:18.065Z,100312.03
2023-02-03T08:55:02.040Z,100316.19
2023-02-03T08:57:53.029Z,100303.75
2023-02-03T09:00:23.168Z,100309.47
2023-02-03T09:02:55.992Z,100314.94
2023-02-03T09:05:23.505Z,100304.84
2023-02-03T09:07:50.197Z,100308.22
2023-02-03T09:10:16.980Z,100317.31
2023-02-03T09:12:43.773Z,100307.69
2023-02-03T09:15:10.596Z,100305.31
2023-02-03T09:17:38.929Z,100299.59
2023-02-03T09:20:06.324Z,100298.50
2023-02-03T09:22:33.168Z,100307.59
2023-02-03T09:25:00.168Z,100299.50
2023-02-03T09:27:27.067Z,100297.41
2023-02-03T09:29:53.861Z,100297.41
2023-02-03T09:32:20.592Z,100290.63
2023-02-03T09:34:48.550Z,100288.56
2023-02-03T09:37:15.444Z,100283.59
2023-02-03T09:39:42.512Z,100285.44
2023-02-03T09:42:20.082Z,100282.59
2023-02-03T09:44:50.413Z,100278.75
2023-02-03T09:47:27.162Z,100280.56
2023-02-03T09:49:56.964Z,100272.56
2023-02-03T09:52:32.260Z,100260.91
2023-02-03T09:55:03.193Z,100251.34
2023-02-03T09:57:32.632Z,100246.66
2023-02-03T10:00:02.021Z,100240.94
2023-02-03T10:02:45.101Z,100234.75
2023-02-03T10:05:22.977Z,100227.47
2023-02-03T10:08:14.580Z,100223.31
2023-02-03T10:10:49.147Z,100198.91
2023-02-03T10:13:15.896Z,100206.16
2023-02-03T10:15:58.331Z,100195.78
2023-02-03T10:18:40.698Z,100190.59
2023-02-03T10:21:18.096Z,100185.91
2023-02-03T10:23:45.614Z,100179.16
2023-02-03T10:26:24.322Z,100167.19
2023-02-03T10:28:58.174Z,100166.66
2023-02-03T10:31:27.922Z,100166.38
2023-02-03T10:34:10.306Z,100156.22
2023-02-03T10:36:53.834Z,100153.09
2023-02-03T10:39:32.093Z,100155.19
2023-02-03T10:41:59.841Z,100146.06
2023-02-03T10:44:51.315Z,100134.34
2023-02-03T10:47:37.766Z,100129.13
2023-02-03T10:50:08.101Z,100124.69
2023-02-03T10:52:35.801Z,100124.69
2023-02-03T10:55:07.956Z,100113.50
2023-02-03T10:57:39.374Z,100110.63
2023-02-03T11:00:15.449Z,100108.00
2023-02-03T11:02:42.329Z,100095.78
2023-02-03T11:05:29.396Z,100089.56
2023-02-03T11:07:56.266Z,100086.41
2023-02-03T11:10:36.402Z,100068.81
2023-02-03T11:13:26.020Z,100064.97
2023-02-03T11:16:14.013Z,100065.19
2023-02-03T11:18:47.874Z,100061.03
2023-02-03T11:21:28.771Z,100052.16
2023-02-03T11:24:22.933Z,100034.94
2023-02-03T11:27:03.158Z,100028.44
2023-02-03T11:29:40.722Z,100015.69
2023-02-03T11:32:28.451Z,100011.97
2023-02-03T11:34:58.995Z,100016.94
2023-02-03T11:37:29.906Z,100013.34
2023-02-03T11:40:11.838Z,100002.19
2023-02-03T11:42:41.510Z,99996.56
2023-02-03T11:45:29.970Z,99985.13
2023-02-03T11:48:11.731Z,99988.59
2023-02-03T11:50:43.861Z,99979.28
2023-02-03T11:53:14.023Z,99969.16
2023-02-03T11:56:19.356Z,99958.75
2023-02-03T11:58:59.323Z,99948.38
2023-02-03T12:02:03.068Z,99961.91
2023-02-03T12:05:05.004Z,99939.56
2023-02-03T12:08:03.088Z,99921.16
2023-02-03T12:10:36.622Z,99926.06
2023-02-03T12:13:38.819Z,99911.44
2023-02-03T12:16:14.129Z,99914.34
2023-02-03T12:18:49.799Z,99905.25
2023-02-03T12:21:16.588Z,99885.50
2023-02-03T12:24:15.369Z,99889.47
2023-02-03T12:27:06.726Z,99876.25
2023-02-03T12:29:43.942Z,99855.25
2023-02-03T12:32:35.189Z,99849.09
2023-02-03T12:35:24.325Z,99838.94
2023-02-03T12:38:08.444Z,99835.72
2023-02-03T12:40:39.882Z,99823.19
2023-02-03T12:43:15.581Z,99822.13
2023-02-03T12:45:53.424Z,99821.59
2023-02-03T12:48:23.389Z,99800.22
2023-02-03T12:50:56.764Z,99789.81
2023-02-03T12:53:40.096Z,99792.63
2023-02-03T12:56:13.393Z,99785.06
2023-02-03T12:58:44.934Z,99778.75
2023-02-03T13:01:23.543Z,99770.94
2023-02-03T13:04:11.150Z,99767.75
2023-02-03T13:07:08.874Z,99756.88
2023-02-03T13:09:44.617Z,99762.56
2023-02-03T13:12:17.086Z,99752.84
2023-02-03T13:14:56.833Z,99747.56
2023-02-03T13:17:29.463Z,99732.34
2023-02-03T13:19:59.040Z,99733.19
2023-02-03T13:22:26.009Z,99734.16
2023-02-03T13:25:22.775Z,99706.19
2023-02-03T13:28:10.279Z,99726.53
2023-02-03T13:31:07.608Z,99714.56
2023-02-03T13:33:55.035Z,99708.94
2023-02-03T13:36:59.976Z,99707.97
2023-02-03T13:39:34.125Z,99689.97
2023-02-03T13:42:16.180Z,99687.06
2023-02-03T13:44:44.772Z,99687.63
2023-02-03T13:47:18.809Z,99682.16
2023-02-03T13:49:51.577Z,99680.31
2023-02-03T13:52:26.718Z,99676.06
2023-02-03T13:54:53.428Z,99665.09
2023-02-03T13:57:22.869Z,99661.50
2023-02-03T13:59:50.377Z,99653.19
2023-02-03T14:02:20.277Z,99646.50
2023-02-03T14:04:47.054Z,99646.53
2023-02-03T14:07:38.090Z,99647.59
2023-02-03T14:10:14.080Z,99631.78
2023-02-03T14:12:50.199Z,99640.88
2023-02-03T14:15:21.154Z,99639.31
2023-02-03T14:17:47.828Z,99634.13
2023-02-03T14:20:26.997Z,99623.28
2023-02-03T14:22:57.822Z,99626.69
2023-02-03T14:25:27.128Z,99625.41
2023-02-03T14:28:04.141Z,99612.41
2023-02-03T14:30:31.247Z,99619.41
2023-02-03T14:33:00.146Z,99601.28
2023-02-03T14:35:31.841Z,99600.00
2023-02-03T14:38:03.995Z,99604.69
2023-02-03T14:40:52.588Z,99593.81
2023-02-03T14:43:51.204Z,99586.03
2023-02-03T14:46:40.343Z,99578.72
2023-02-03T14:49:35.048Z,99583.38
2023-02-03T14:52:26.949Z,99576.09
2023-02-03T14:55:18.733Z,99569.03
2023-02-03T14:57:52.134Z,99558.88
2023-02-03T15:00:23.020Z,99557.19
2023-02-03T15:03:25.824Z,99557.72
2023-02-03T15:06:01.805Z,99549.88
2023-02-03T15:08:42.707Z,99545.38
2023-02-03T15:11:21.625Z,99541.97
2023-02-03T15:13:48.393Z,99522.72
2023-02-03T15:16:19.001Z,99527.34
2023-02-03T15:18:45.833Z,99526.47
2023-02-03T15:21:19.783Z,99516.84
2023-02-03T15:23:48.215Z,99512.19
2023-02-03T15:26:19.508Z,99504.41
2023-02-03T15:28:59.142Z,99505.91
2023-02-03T15:32:18.265Z,99499.09
2023-02-03T15:34:49.990Z,99491.84
2023-02-03T15:37:33.532Z,99498.03
2023-02-03T15:40:03.356Z,99494.09
2023-02-03T15:42:35.794Z,99494.38
2023-02-03T15:46:00.978Z,99488.69
2023-02-03T15:48:30.482Z,99494.94
2023-02-03T15:51:17.104Z,99496.75
2023-02-03T15:53:48.782Z,99486.00
2023-02-03T15:56:41.776Z,99481.19
2023-02-03T15:59:20.814Z,99483.38
2023-02-03T16:01:48.105Z,99482.03
2023-02-03T16:04:15.457Z,99488.06
2023-02-03T16:06:47.026Z,99474.59
2023-02-03T16:09:35.024Z,99478.28
2023-02-03T16:12:24.496Z,99460.72
2023-02-03T16:14:52.506Z,99470.16
2023-02-03T16:17:33.861Z,99468.34
2023-02-03T16:20:12.936Z,99445.03
2023-02-03T16:22:42.771Z,99447.88
2023-02-03T16:25:22.398Z,99447.44
2023-02-03T16:28:34.954Z,99436.28
2023-02-03T16:31:22.375Z,99419.94
2023-02-03T16:34:09.359Z,99418.91
2023-02-03T16:37:02.441Z,99416.84
2023-02-03T16:39:47.681Z,99423.91
2023-02-03T16:42:38.417Z,99411.16
2023-02-03T16:45:32.158Z,99401.28
2023-02-03T16:48:17.692Z,99392.44
2023-02-03T16:50:59.311Z,99384.59
2023-02-03T16:53:30.173Z,99374.19
2023-02-03T16:56:02.151Z,99366.09
2023-02-03T16:58:29.167Z,99362.66
2023-02-03T17:00:59.211Z,99355.91
2023-02-03T17:03:27.419Z,99346.00
2023-02-03T17:05:55.160Z,99325.44
2023-02-03T17:08:23.600Z,99323.97
2023-02-03T17:10:51.215Z,99336.97
2023-02-03T17:13:19.861Z,99323.28
2023-02-03T17:15:49.982Z,99320.38
2023-02-03T17:18:22.534Z,99310.13
2023-02-03T17:20:54.500Z,99299.09
2023-02-03T17:23:21.705Z,99294.53
2023-02-03T17:25:54.657Z,99296.69
2023-02-03T17:28:21.568Z,99289.94
2023-02-03T17:31:13.624Z,99285.41
2023-02-03T17:33:41.492Z,99272.03
2023-02-03T17:36:12.027Z,99275.88
2023-02-03T17:55:10.929Z,99270.63
2023-02-03T17:57:38.100Z,99266.28
2023-02-03T18:00:05.821Z,99266.47
2023-02-03T18:02:32.578Z,99260.13
2023-02-03T18:04:59.541Z,99262.34
2023-02-03T18:07:26.265Z,99257.59
2023-02-03T18:09:53.294Z,99260.03
2023-02-03T18:12:20.440Z,99260.69
2023-02-03T18:14:47.184Z,99250.44
2023-02-03T18:17:13.937Z,99235.59
2023-02-03T18:19:46.614Z,99230.31
2023-02-03T18:22:15.978Z,99228.47
2023-02-03T18:24:44.966Z,99234.28
2023-02-03T18:27:16.782Z,99232.13
2023-02-03T18:29:45.619Z,99233.69
2023-02-03T18:32:14.211Z,99232.13
2023-02-03T18:34:41.465Z,99221.31
2023-02-03T18:37:08.625Z,99229.03
2023-02-03T18:39:35.450Z,99245.78
2023-02-03T18:42:03.328Z,99240.19
2023-02-03T18:44:31.644Z,99237.28
2023-02-03T18:47:06.469Z,99246.94
2023-02-03T18:49:35.269Z,99248.28
2023-02-03T18:52:02.474Z,99253.50
2023-02-03T18:54:29.714Z,99247.41
2023-02-03T18:56:58.921Z,99233.22
2023-02-03T18:59:26.307Z,99237.53
2023-02-03T19:01:53.639Z,99227.22
2023-02-03T19:04:20.857Z,99191.13
2023-02-03T19:06:47.871Z,99182.94
2023-02-03T19:09:17.073Z,99169.56
2023-02-03T19:11:44.366Z,99174.84
2023-02-03T19:14:13.720Z,99175.22
2023-02-03T19:16:40.946Z,99176.06
2023-02-03T19:19:08.853Z,99181.81
2023-02-03T19:21:35.973Z,99177.22
2023-02-03T19:24:03.051Z,99190.34
2023-02-03T19:26:30.932Z,99193.03
2023-02-03T19:28:58.100Z,99189.56
2023-02-03T19:31:25.302Z,99179.63
2023-02-03T19:33:52.448Z,99170.00
2023-02-03T19:36:19.461Z,99171.03
2023-02-03T19:38:46.303Z,99173.66
2023-02-03T19:41:13.481Z,99189.38
2023-02-03T19:43:40.604Z,99179.53
2023-02-03T19:46:08.324Z,99183.59
2023-02-03T19:48:36.036Z,99172.25
2023-02-03T19:51:03.061Z,99178.72
2023-02-03T19:53:30.225Z,99189.81
2023-02-03T19:55:58.330Z,99200.56
2023-02-03T19:58:25.505Z,99201.34
2023-02-03T20:00:53.628Z,99209.59
2023-02-03T20:03:22.739Z,99222.69
2023-02-03T20:05:51.269Z,99220.16
2023-02-03T20:08:18.397Z,99241.13
2023-02-03T20:10:45.508Z,99232.06
2023-02-03T20:13:13.382Z,99237.03
2023-02-03T20:15:40.923Z,99237.25
2023-02-03T20:18:07.989Z,99238.03
2023-02-03T20:20:35.668Z,99247.28
2023-02-03T20:23:02.711Z,99246.16
2023-02-03T20:25:30.222Z,99264.72
2023-02-03T20:27:58.279Z,99259.31
2023-02-03T20:30:27.127Z,99258.53
2023-02-03T20:32:54.720Z,99261.06
2023-02-03T20:35:23.704Z,99251.06
2023-02-03T20:37:50.799Z,99252.03
2023-02-03T20:40:19.506Z,99258.00
2023-02-03T20:42:47.410Z,99257.41
2023-02-03T20:45:18.668Z,99237.97
2023-02-03T20:47:46.202Z,99247.97
2023-02-03T20:50:22.455Z,99234.28
2023-02-03T20:52:52.050Z,99231.56
2023-02-03T20:55:21.577Z,99231.47
2023-02-03T20:57:51.485Z,99221.94
2023-02-03T21:00:22.456Z,99220.41
2023-02-03T21:03:07.885Z,99210.16
2023-02-03T21:05:40.588Z,99195.31
2023-02-03T21:08:15.384Z,99206.06
2023-02-03T21:10:43.365Z,99200.69
2023-02-03T21:13:18.053Z,99200.47
2023-02-03T21:15:44.810Z,99197.59
2023-02-03T21:18:24.190Z,99194.72
2023-02-03T21:20:51.372Z,99198.06
2023-02-03T21:23:24.914Z,99202.28
2023-02-03T21:25:51.962Z,99200.47
2023-02-03T21:28:26.658Z,99197.41
2023-02-03T21:30:54.157Z,99196.69
2023-02-03T21:33:32.664Z,99196.69
2023-02-03T21:35:59.679Z,99200.84
2023-02-03T21:38:31.328Z,99193.84
2023-02-03T21:41:01.199Z,99195.84
2023-02-03T21:43:30.122Z,99193.53
2023-02-03T21:45:57.326Z,99195.09
2023-02-03T21:48:32.709Z,99190.19
2023-02-03T21:51:04.717Z,99192.97
2023-02-03T21:53:35.735Z,99203.66
2023-02-03T21:56:24.517Z,99193.47
2023-02-03T21:58:53.052Z,99188.91
2023-02-03T22:01:22.826Z,99208.13
2023-02-03T22:03:52.511Z,99216.50
2023-02-03T22:06:28.197Z,99215.06
2023-02-03T22:08:57.288Z,99216.88
2023-02-03T22:11:26.945Z,99220.88
2023-02-03T22:13:54.076Z,99228.38
2023-02-03T22:16:21.375Z,99237.16
2023-02-03T22:18:49.095Z,99244.25
2023-02-03T22:21:16.817Z,99249.44
2023-02-03T22:23:43.749Z,99253.50
2023-02-03T22:26:11.648Z,99250.44
2023-02-03T22:28:39.019Z,99242.72
2023-02-03T22:31:07.513Z,99244.81
2023-02-03T22:33:35.673Z,99243.13
2023-02-03T22:36:04.166Z,99252.47
2023-02-03T22:38:30.914Z,99248.94
2023-02-03T22:40:57.785Z,99242.88
2023-02-03T22:43:24.867Z,99260.31
2023-02-03T22:45:51.994Z,99256.38
2023-02-03T22:48:19.009Z,99269.28
2023-02-03T22:50:45.745Z,99261.91
2023-02-03T22:53:13.004Z,99263.84
2023-02-03T22:55:39.735Z,99270.03
2023-02-03T22:58:07.299Z,99261.09
2023-02-03T23:00:34.393Z,99255.81
2023-02-03T23:03:01.296Z,99251.97
2023-02-03T23:05:28.154Z,99251.19
2023-02-03T23:07:54.953Z,99248.66
2023-02-03T23:10:24.470Z,99241.84
2023-02-03T23:12:52.017Z,99233.28
2023-02-03T23:15:18.839Z,99235.41
2023-02-03T23:17:45.626Z,99237.41
2023-02-03T23:20:13.978Z,99232.50
2023-02-03T23:22:40.755Z,99233.53
2023-02-03T23:25:07.881Z,99223.16
2023-02-03T23:27:34.645Z,99219.03
2023-02-03T23:30:01.453Z,99215.59
2023-02-03T23:32:28.197Z,99220.56
2023-02-03T23:35:13.442Z,99232.16
2023-02-03T23:37:40.232Z,99241.19
2023-02-03T23:40:07.358Z,99246.47
2023-02-03T23:42:34.275Z,99247.75
2023-02-03T23:45:01.069Z,99251.19
2023-02-03T23:47:27.846Z,99252.25
2023-02-03T23:49:54.599Z,99246.00
2023-02-03T23:52:21.330Z,99239.25
2023-02-03T23:54:48.105Z,99245.22
2023-02-03T23:57:14.831Z,99246.00
2023-02-03T23:59:41.585Z,99249.13
